Balloch, United Kingdom
Current Conditions -  °F | °C
As of 12:50 AM on Saturday 01 Nov 2014 (Local Time) from EGPF Reporting Station
Light Rain Light Rain  
Wind Chill: 55°   Ceiling: 800
Heat Index: 55°   Visibility: 6mi
Dew Point: 54°   Wind: 17mph
Humidity: 94%   Direction: 220°SW
Pressure: 29.65"   Gusts: NA
Location:  56°N, 4.58°W
Report Text: EGPF 010050Z AUTO 22015KT 9999 -RA BKN008/// OVC022/// //////CB 13/12 Q1004 RERA
Loading
Personal Weather Stations






























Interactive Weather Map
Tropical Storm Tracking
New forecast layout! Learn more

10-Day Weather Forecast

Advertisements
Track Severe Weather on mobile